East Lexington, Virginia
Current Conditions -  °F | °C
As of 7:55 PM on Friday 24 Oct 2014 (Local Time) from KHSP Reporting Station
Clear Clear  
Wind Chill: 46°   Ceiling: Unl
Heat Index: 49°   Visibility: 10mi
Dew Point: 29°   Wind: 9mph
Humidity: 46%   Direction: 300°WNW
Pressure: 30"   Gusts: NA
Location:  37.7866°N, 79.5193°W
Report Text: KHSP 242355Z AUTO 30008KT 10SM CLR 10/M02 A3000 RMK AO2 T00971016 10148 20097
Loading
Personal Weather Stations






























Interactive Weather Map
Tropical Storm Tracking
New forecast layout! Learn more

10-Day Weather Forecast

Advertisements
Track Severe Weather on mobile